Hovedside
METAR-TAF:

METAR-TAF

Lufthavner :

Leknes lufthavn

Leknes, Norge

breddegrad: 68-09N, lengdegrad: 013-37E, høyde over havet: 2 m

Gjeldene værobservasjon

Denne rapporten ble laget for 39 minutter siden, klokken 12:50 UTC
Vind 10 kt fra Sør
Temperatur 3°C
Luftfuktighet 81%
Trykk 1009 hPa
Sikt: 7000 m
Få skyer i en høyde av 1500 ft
Brutte skyer i en høyde av 2000 ft
regnbyger

METAR: ENLK 221250Z 17010KT 9999 7000SW SHRA FEW015 BKN020 03/00 Q1009

Tid: 14:29 (13:29 UTC)


TAF: fraværende

Værobservasjoner og værvarsel for over 4000 flyplasser (METAR- og TAF-rapporter).

Tilgjengelige stasjoner er representert av de røde og gule prikkene på kartet.

Hold musepekeren over prikken for å se navnet på stasjonen.

Klikk så for å se værobservasjoner og -varsler.

For å forandre kartet kan du klikke på den grønne knappen med svart kryss for å zoome inn, på den grønne knappen med strek for å zoome ut, eller på de grønne pilene for å se tilstøtende kart.


METAR-TAF: